createdAt,value
2018-08-06T00:00:54.780Z,28.36
2018-08-06T00:02:04.198Z,28.31
2018-08-06T00:03:13.880Z,28.3
2018-08-06T00:04:22.778Z,28.27
2018-08-06T00:05:32.718Z,28.25
2018-08-06T00:06:41.607Z,28.27
2018-08-06T00:07:51.028Z,28.29
2018-08-06T00:09:00.194Z,28.22
2018-08-06T00:10:09.611Z,28.27
2018-08-06T00:11:18.758Z,28.18
2018-08-06T00:12:27.661Z,28.21
2018-08-06T00:13:36.820Z,28.25
2018-08-06T00:14:45.474Z,28.18
2018-08-06T00:15:54.365Z,28.21
2018-08-06T00:17:03.532Z,28.21
2018-08-06T00:18:12.958Z,28.18
2018-08-06T00:19:22.368Z,28.21
2018-08-06T00:20:32.042Z,28.19
2018-08-06T00:21:41.703Z,28.21
2018-08-06T00:22:50.619Z,28.18
2018-08-06T00:23:59.774Z,28.18
2018-08-06T00:25:08.946Z,28.18
2018-08-06T00:26:18.100Z,28.25
2018-08-06T00:27:27.536Z,28.18
2018-08-06T00:28:37.208Z,28.19
2018-08-06T00:29:46.584Z,28.18
2018-08-06T00:30:56.442Z,28.21
2018-08-06T00:32:06.124Z,28.19
2018-08-06T00:33:15.023Z,28.19
2018-08-06T00:34:24.187Z,28.15
2018-08-06T00:35:33.615Z,28.12
2018-08-06T00:36:42.781Z,28.14
2018-08-06T00:37:52.206Z,28.09
2018-08-06T00:39:01.616Z,28.07
2018-08-06T00:40:10.277Z,28.11
2018-08-06T00:41:20.207Z,28.15
2018-08-06T00:42:29.134Z,28.11
2018-08-06T00:43:38.030Z,28.11
2018-08-06T00:44:46.988Z,28.19
2018-08-06T00:45:56.697Z,28.07
2018-08-06T00:47:05.859Z,28.06
2018-08-06T00:48:15.273Z,28.12
2018-08-06T00:49:24.435Z,28.07
2018-08-06T00:50:33.870Z,28.07
2018-08-06T00:51:43.022Z,28.12
2018-08-06T00:52:52.430Z,28.12
2018-08-06T00:54:02.130Z,28.07
2018-08-06T00:55:11.638Z,28.11
2018-08-06T00:56:21.315Z,28.11
2018-08-06T00:57:30.736Z,28.07
2018-08-06T00:58:40.152Z,28.04
2018-08-06T00:59:49.060Z,28.04
2018-08-06T01:00:57.719Z,28.06
2018-08-06T01:02:06.632Z,28.04
2018-08-06T01:03:16.060Z,28.02
2018-08-06T01:04:25.520Z,28.02
2018-08-06T01:05:34.939Z,28.04
2018-08-06T01:06:44.339Z,28.02
2018-08-06T01:07:53.749Z,27.97
2018-08-06T01:09:02.894Z,28.06
2018-08-06T01:10:12.110Z,27.97
2018-08-06T01:11:22.090Z,27.97
2018-08-06T01:12:31.536Z,28
2018-08-06T01:13:40.681Z,28.04
2018-08-06T01:14:49.576Z,27.96
2018-08-06T01:15:58.474Z,28.04
2018-08-06T01:17:07.924Z,27.99
2018-08-06T01:18:17.595Z,28.02
2018-08-06T01:19:26.742Z,27.93
2018-08-06T01:20:36.157Z,28.03
2018-08-06T01:21:45.320Z,28.02
2018-08-06T01:22:54.732Z,27.99
2018-08-06T01:24:04.138Z,28.04
2018-08-06T01:25:13.325Z,27.92
2018-08-06T01:26:22.233Z,27.93
2018-08-06T01:27:31.645Z,27.92
2018-08-06T01:28:40.790Z,27.92
2018-08-06T01:29:49.952Z,27.93
2018-08-06T01:30:59.100Z,27.92
2018-08-06T01:32:08.826Z,27.93
2018-08-06T01:33:17.984Z,27.92
2018-08-06T01:34:27.134Z,27.94
2018-08-06T01:35:36.275Z,27.92
2018-08-06T01:36:45.440Z,27.99
2018-08-06T01:37:54.585Z,27.92
2018-08-06T01:39:03.752Z,27.85
2018-08-06T01:40:13.424Z,27.9
2018-08-06T01:41:22.592Z,27.92
2018-08-06T01:42:31.493Z,27.87
2018-08-06T01:43:40.643Z,27.87
2018-08-06T01:44:49.794Z,27.79
2018-08-06T01:45:59.201Z,27.81
2018-08-06T01:47:08.603Z,27.81
2018-08-06T01:48:17.779Z,27.81
2018-08-06T01:49:26.951Z,27.81
2018-08-06T01:50:36.376Z,27.87
2018-08-06T01:51:45.773Z,27.82
2018-08-06T01:52:54.916Z,27.79
2018-08-06T01:54:03.821Z,27.82
2018-08-06T01:55:13.238Z,27.75
2018-08-06T01:56:22.400Z,27.85
2018-08-06T01:57:32.325Z,27.81
2018-08-06T01:58:41.277Z,27.82
2018-08-06T01:59:50.434Z,27.77
2018-08-06T02:00:59.869Z,27.77
2018-08-06T02:02:09.044Z,27.75
2018-08-06T02:03:18.706Z,27.69
2018-08-06T02:04:27.887Z,27.7
2018-08-06T02:05:37.311Z,27.69
2018-08-06T02:06:46.479Z,27.66
2018-08-06T02:07:55.624Z,27.75
2018-08-06T02:09:04.778Z,27.63
2018-08-06T02:10:14.190Z,27.63
2018-08-06T02:11:23.617Z,27.6
2018-08-06T02:12:32.768Z,27.7
2018-08-06T02:13:41.930Z,27.59
2018-08-06T02:14:51.869Z,27.55
2018-08-06T02:16:01.015Z,27.59
2018-08-06T02:17:10.930Z,27.54
2018-08-06T02:18:20.096Z,27.57
2018-08-06T02:19:29.540Z,27.49
2018-08-06T02:20:38.946Z,27.55
2018-08-06T02:21:48.373Z,27.54
2018-08-06T02:22:57.787Z,27.47
2018-08-06T02:24:06.942Z,27.47
2018-08-06T02:25:16.106Z,27.51
2018-08-06T02:26:25.248Z,27.57
2018-08-06T02:27:34.702Z,27.51
2018-08-06T02:28:44.103Z,27.47
2018-08-06T02:29:53.511Z,27.5
2018-08-06T02:31:03.193Z,27.43
2018-08-06T02:32:12.617Z,27.4
2018-08-06T02:33:22.290Z,27.43
2018-08-06T02:34:31.954Z,27.4
2018-08-06T02:35:41.363Z,27.43
2018-08-06T02:36:51.067Z,27.41
2018-08-06T02:38:00.219Z,27.4
2018-08-06T02:39:09.667Z,27.29
2018-08-06T02:40:19.363Z,27.29
2018-08-06T02:41:28.528Z,27.27
2018-08-06T02:42:38.461Z,27.36
2018-08-06T02:43:47.874Z,27.36
2018-08-06T02:44:57.280Z,27.25
2018-08-06T02:46:06.949Z,27.22
2018-08-06T02:47:16.363Z,27.31
2018-08-06T02:48:25.500Z,27.32
2018-08-06T02:49:34.661Z,27.21
2018-08-06T02:50:44.069Z,27.28
2018-08-06T02:51:52.712Z,27.24
2018-08-06T02:53:01.859Z,27.24
2018-08-06T02:54:11.260Z,27.24
2018-08-06T02:55:20.483Z,27.18
2018-08-06T02:56:29.891Z,27.19
2018-08-06T02:57:39.306Z,27.27
2018-08-06T02:58:47.948Z,27.14
2018-08-06T02:59:57.106Z,27.18
2018-08-06T03:01:06.520Z,27.22
2018-08-06T03:02:15.689Z,27.27
2018-08-06T03:03:25.402Z,27.22
2018-08-06T03:04:35.067Z,27.18
2018-08-06T03:05:44.233Z,27.24
2018-08-06T03:06:53.657Z,27.25
2018-08-06T03:08:02.808Z,27.22
2018-08-06T03:09:11.966Z,27.28
2018-08-06T03:10:21.122Z,27.21
2018-08-06T03:11:30.549Z,27.27
2018-08-06T03:12:40.218Z,27.28
2018-08-06T03:13:49.635Z,27.29
2018-08-06T03:14:58.800Z,27.25
2018-08-06T03:16:08.238Z,27.27
2018-08-06T03:17:17.659Z,27.22
2018-08-06T03:18:27.360Z,27.19
2018-08-06T03:19:37.035Z,27.19
2018-08-06T03:20:46.466Z,27.24
2018-08-06T03:21:56.142Z,27.28
2018-08-06T03:23:05.544Z,27.22
2018-08-06T03:24:15.263Z,27.34
2018-08-06T03:25:24.426Z,27.25
2018-08-06T03:26:34.109Z,27.21
2018-08-06T03:27:43.538Z,27.14
2018-08-06T03:28:52.709Z,27.17
2018-08-06T03:30:02.140Z,27.21
2018-08-06T03:31:11.575Z,27.18
2018-08-06T03:32:21.014Z,27.14
2018-08-06T03:33:30.674Z,27.17
2018-08-06T03:34:40.094Z,27.24
2018-08-06T03:35:49.513Z,27.17
2018-08-06T03:36:58.668Z,27.18
2018-08-06T03:38:07.568Z,27.24
2018-08-06T03:39:16.728Z,27.24
2018-08-06T03:40:26.412Z,27.21
2018-08-06T03:41:36.111Z,27.18
2018-08-06T03:42:45.282Z,27.21
2018-08-06T03:43:54.733Z,27.19
2018-08-06T03:45:03.883Z,27.17
2018-08-06T03:46:13.319Z,27.12
2018-08-06T03:47:22.475Z,27.22
2018-08-06T03:48:31.646Z,27.12
2018-08-06T03:49:41.124Z,27.14
2018-08-06T03:50:50.273Z,27.1
2018-08-06T03:51:59.161Z,27.09
2018-08-06T03:53:09.078Z,27.1
2018-08-06T03:54:18.504Z,27.1
2018-08-06T03:55:27.960Z,27.07
2018-08-06T03:56:36.873Z,27.1
2018-08-06T03:57:46.578Z,27.06
2018-08-06T03:58:55.774Z,27
2018-08-06T04:00:04.682Z,27.04
2018-08-06T04:01:13.594Z,27.03
2018-08-06T04:02:23.018Z,26.95
2018-08-06T04:03:32.180Z,26.95
2018-08-06T04:04:41.593Z,27.02
2018-08-06T04:05:50.509Z,26.97
2018-08-06T04:06:59.928Z,26.92
2018-08-06T04:08:09.342Z,26.95
2018-08-06T04:09:18.244Z,26.94
2018-08-06T04:10:27.690Z,26.97
2018-08-06T04:11:36.600Z,26.97
2018-08-06T04:12:45.747Z,26.99
2018-08-06T04:13:55.415Z,26.92
2018-08-06T04:15:05.079Z,26.88
2018-08-06T04:16:14.508Z,26.85
2018-08-06T04:17:23.934Z,26.92
2018-08-06T04:18:33.112Z,26.82
2018-08-06T04:19:42.876Z,26.85
2018-08-06T04:20:52.422Z,26.82
2018-08-06T04:22:01.851Z,26.88
2018-08-06T04:23:11.021Z,26.84
2018-08-06T04:24:20.169Z,26.81
2018-08-06T04:25:29.843Z,26.85
2018-08-06T04:26:39.264Z,26.76
2018-08-06T04:27:48.399Z,26.85
2018-08-06T04:28:58.123Z,26.76
2018-08-06T04:30:07.028Z,26.84
2018-08-06T04:31:16.708Z,26.75
2018-08-06T04:32:26.373Z,26.7
2018-08-06T04:33:35.561Z,26.69
2018-08-06T04:34:45.523Z,26.76
2018-08-06T04:35:54.961Z,26.75
2018-08-06T04:37:04.097Z,26.62
2018-08-06T04:38:13.247Z,26.66
2018-08-06T04:39:22.437Z,26.65
2018-08-06T04:40:31.331Z,26.66
2018-08-06T04:41:40.736Z,26.66
2018-08-06T04:42:50.421Z,26.62
2018-08-06T04:43:59.842Z,26.67
2018-08-06T04:45:09.520Z,26.66
2018-08-06T04:46:18.424Z,26.66
2018-08-06T04:47:27.593Z,26.62
2018-08-06T04:48:36.772Z,26.65
2018-08-06T04:49:45.939Z,26.54
2018-08-06T04:50:55.341Z,26.6
2018-08-06T04:52:05.016Z,26.62
2018-08-06T04:53:13.913Z,26.6
2018-08-06T04:54:23.353Z,26.65
2018-08-06T04:55:33.019Z,26.65
2018-08-06T04:56:41.909Z,26.63
2018-08-06T04:57:51.511Z,26.69
2018-08-06T04:59:00.920Z,26.66
2018-08-06T05:00:10.068Z,26.76
2018-08-06T05:01:19.469Z,26.76
2018-08-06T05:02:29.136Z,26.81
2018-08-06T05:03:38.564Z,26.84
2018-08-06T05:04:47.711Z,26.8
2018-08-06T05:05:57.122Z,26.77
2018-08-06T05:07:06.463Z,26.81
2018-08-06T05:08:15.935Z,26.82
2018-08-06T05:09:25.340Z,26.87
2018-08-06T05:10:34.481Z,26.92
2018-08-06T05:11:43.646Z,26.91
2018-08-06T05:12:52.541Z,26.95
2018-08-06T05:14:01.537Z,27.03
2018-08-06T05:15:10.687Z,27.02
2018-08-06T05:16:19.841Z,26.99
2018-08-06T05:17:28.982Z,26.97
2018-08-06T05:18:38.917Z,27.12
2018-08-06T05:19:48.356Z,27.17
2018-08-06T05:20:57.546Z,27.1
2018-08-06T05:22:06.967Z,27.18
2018-08-06T05:23:16.627Z,27.21
2018-08-06T05:24:25.835Z,27.27
2018-08-06T05:25:35.688Z,27.24
2018-08-06T05:26:45.097Z,27.29
2018-08-06T05:27:54.266Z,27.21
2018-08-06T05:29:03.945Z,27.17
2018-08-06T05:30:13.129Z,27.22
2018-08-06T05:31:22.994Z,27.21
2018-08-06T05:32:32.464Z,27.22
2018-08-06T05:33:42.131Z,27.31
2018-08-06T05:34:51.562Z,27.36
2018-08-06T05:36:01.496Z,27.39
2018-08-06T05:37:10.911Z,27.32
2018-08-06T05:38:20.324Z,27.4
2018-08-06T05:39:29.480Z,27.39
2018-08-06T05:40:38.905Z,27.36
2018-08-06T05:41:47.817Z,27.41
2018-08-06T05:42:56.971Z,27.46
2018-08-06T05:44:06.664Z,27.5
2018-08-06T05:45:16.336Z,27.55
2018-08-06T05:46:26.049Z,27.55
2018-08-06T05:47:35.446Z,27.54
2018-08-06T05:48:44.871Z,27.57
2018-08-06T05:49:54.532Z,27.55
2018-08-06T05:51:03.960Z,27.49
2018-08-06T05:52:13.363Z,27.49
2018-08-06T05:53:22.256Z,27.62
2018-08-06T05:54:31.148Z,27.62
2018-08-06T05:55:40.341Z,27.57
2018-08-06T05:56:49.257Z,27.62
2018-08-06T05:57:58.937Z,27.62
2018-08-06T05:59:08.348Z,27.69
2018-08-06T06:00:17.750Z,27.69
2018-08-06T06:01:26.650Z,27.63
2018-08-06T06:02:35.843Z,27.67
2018-08-06T06:03:45.249Z,27.67
2018-08-06T06:04:54.155Z,27.65
2018-08-06T06:06:03.307Z,27.69
2018-08-06T06:07:12.200Z,27.67
2018-08-06T06:08:21.618Z,27.67
2018-08-06T06:09:31.023Z,27.69
2018-08-06T06:10:39.918Z,27.66
2018-08-06T06:11:49.834Z,27.69
2018-08-06T06:12:59.248Z,27.72
2018-08-06T06:14:08.414Z,27.75
2018-08-06T06:15:17.569Z,27.72
2018-08-06T06:16:27.002Z,27.82
2018-08-06T06:17:36.165Z,27.87
2018-08-06T06:18:45.848Z,27.85
2018-08-06T06:19:55.023Z,27.84
2018-08-06T06:21:03.916Z,27.84
2018-08-06T06:22:13.351Z,27.94
2018-08-06T06:23:22.759Z,27.85
2018-08-06T06:24:31.653Z,27.81
2018-08-06T06:25:40.597Z,27.88
2018-08-06T06:26:49.844Z,27.81
2018-08-06T06:27:59.022Z,27.93
2018-08-06T06:29:08.466Z,27.87
2018-08-06T06:30:17.372Z,27.94
2018-08-06T06:31:26.801Z,27.9
2018-08-06T06:32:36.221Z,27.81
2018-08-06T06:33:45.385Z,27.93
2018-08-06T06:34:55.413Z,27.92
2018-08-06T06:36:05.312Z,27.88
2018-08-06T06:37:14.489Z,27.92
2018-08-06T06:38:23.401Z,27.9
2018-08-06T06:39:32.074Z,27.87
2018-08-06T06:40:41.758Z,27.93
2018-08-06T06:41:51.929Z,27.93
2018-08-06T06:43:00.839Z,27.94
2018-08-06T06:44:10.776Z,27.92
2018-08-06T06:45:20.449Z,27.92
2018-08-06T06:46:29.901Z,27.96
2018-08-06T06:47:39.603Z,27.92
2018-08-06T06:48:49.433Z,27.99
2018-08-06T06:49:58.725Z,27.99
2018-08-06T06:51:08.155Z,28.02
2018-08-06T06:52:17.056Z,28
2018-08-06T06:53:26.732Z,28
2018-08-06T06:54:37.019Z,28.03
2018-08-06T06:55:45.671Z,27.93
2018-08-06T06:56:55.354Z,28.03
2018-08-06T06:58:04.538Z,27.99
2018-08-06T06:59:13.976Z,28.02
2018-08-06T07:00:23.141Z,28
2018-08-06T07:01:32.310Z,27.96
2018-08-06T07:02:41.748Z,27.99
2018-08-06T07:03:51.413Z,27.96
2018-08-06T07:05:00.571Z,28.03
2018-08-06T07:06:09.993Z,27.99
2018-08-06T07:07:19.451Z,28.02
2018-08-06T07:08:28.874Z,28.02
2018-08-06T07:09:37.792Z,28.02
2018-08-06T07:10:46.943Z,27.94
2018-08-06T07:11:56.619Z,28
2018-08-06T07:13:06.063Z,27.96
2018-08-06T07:14:16.164Z,27.97
2018-08-06T07:15:25.073Z,28.02
2018-08-06T07:16:34.493Z,28.03
2018-08-06T07:17:43.661Z,28
2018-08-06T07:18:52.331Z,28.04
2018-08-06T07:20:01.494Z,28
2018-08-06T07:21:10.656Z,27.99
2018-08-06T07:22:19.573Z,28.07
2018-08-06T07:23:29.272Z,28.04
2018-08-06T07:24:38.705Z,28.07
2018-08-06T07:25:47.875Z,28.09
2018-08-06T07:26:56.837Z,27.99
2018-08-06T07:28:05.994Z,28.04
2018-08-06T07:29:14.907Z,28.03
2018-08-06T07:30:24.085Z,27.97
2018-08-06T07:31:33.504Z,28.09
2018-08-06T07:32:42.659Z,28.11
2018-08-06T07:33:52.362Z,28.09
2018-08-06T07:35:02.304Z,28.06
2018-08-06T07:36:11.748Z,28.03
2018-08-06T07:37:21.425Z,28.11
2018-08-06T07:38:30.586Z,28.07
2018-08-06T07:39:40.021Z,28.11
2018-08-06T07:40:49.706Z,28.11
2018-08-06T07:41:58.864Z,28.12
2018-08-06T07:43:08.673Z,28.12
2018-08-06T07:44:18.425Z,28.11
2018-08-06T07:45:28.098Z,28.12
2018-08-06T07:46:37.772Z,28.06
2018-08-06T07:47:46.961Z,28.12
2018-08-06T07:48:56.141Z,28.06
2018-08-06T07:50:05.080Z,28.04
2018-08-06T07:51:14.805Z,28.12
2018-08-06T07:52:24.222Z,28.12
2018-08-06T07:53:33.122Z,28.14
2018-08-06T07:54:42.788Z,28.12
2018-08-06T07:55:52.205Z,28.14
2018-08-06T07:57:01.632Z,28.11
2018-08-06T07:58:11.298Z,28.06
2018-08-06T07:59:20.216Z,28.09
2018-08-06T08:00:29.636Z,28.11
2018-08-06T08:01:38.796Z,28.07
2018-08-06T08:02:47.959Z,28.09
2018-08-06T08:03:57.397Z,28.09
2018-08-06T08:05:06.312Z,28.07
2018-08-06T08:06:15.516Z,28.11
2018-08-06T08:07:25.007Z,28.12
2018-08-06T08:08:34.442Z,28.12
2018-08-06T08:09:43.873Z,28.18
2018-08-06T08:10:53.036Z,28.15
2018-08-06T08:12:02.931Z,28.15
2018-08-06T08:13:12.260Z,28.15
2018-08-06T08:14:21.674Z,28.22
2018-08-06T08:15:30.601Z,28.17
2018-08-06T08:16:39.763Z,28.19
2018-08-06T08:17:48.694Z,28.18
2018-08-06T08:18:57.865Z,28.21
2018-08-06T08:20:07.618Z,28.22
2018-08-06T08:21:17.448Z,28.15
2018-08-06T08:22:26.868Z,28.24
2018-08-06T08:23:36.834Z,28.17
2018-08-06T08:24:46.333Z,28.21
2018-08-06T08:25:55.252Z,28.27
2018-08-06T08:27:04.404Z,28.22
2018-08-06T08:28:13.881Z,28.22
2018-08-06T08:29:22.821Z,28.18
2018-08-06T08:30:32.246Z,28.18
2018-08-06T08:31:41.677Z,28.24
2018-08-06T08:32:51.103Z,28.22
2018-08-06T08:34:00.767Z,28.21
2018-08-06T08:35:10.370Z,28.19
2018-08-06T08:36:19.798Z,28.19
2018-08-06T08:37:29.204Z,28.22
2018-08-06T08:38:38.647Z,28.21
2018-08-06T08:39:48.600Z,28.17
2018-08-06T08:40:58.276Z,28.25
2018-08-06T08:42:07.187Z,28.22
2018-08-06T08:43:16.616Z,28.17
2018-08-06T08:44:25.532Z,28.22
2018-08-06T08:45:35.387Z,28.24
2018-08-06T08:46:45.204Z,28.21
2018-08-06T08:47:54.663Z,28.19
2018-08-06T08:49:03.857Z,28.25
2018-08-06T08:50:13.010Z,28.24
2018-08-06T08:51:22.187Z,28.19
2018-08-06T08:52:31.896Z,28.24
2018-08-06T08:53:41.377Z,28.18
2018-08-06T08:54:51.335Z,28.18
2018-08-06T08:56:00.503Z,28.24
2018-08-06T08:57:09.957Z,28.27
2018-08-06T08:58:19.356Z,28.24
2018-08-06T08:59:28.505Z,28.22
2018-08-06T09:00:38.190Z,28.25
2018-08-06T09:01:47.872Z,28.22
2018-08-06T09:02:57.275Z,28.24
2018-08-06T09:04:06.425Z,28.29
2018-08-06T09:05:16.093Z,28.25
2018-08-06T09:06:25.759Z,28.25
2018-08-06T09:07:35.701Z,28.25
2018-08-06T09:08:45.130Z,28.27
2018-08-06T09:09:54.535Z,28.25
2018-08-06T09:11:03.454Z,28.24
2018-08-06T09:12:12.898Z,28.25
2018-08-06T09:13:22.329Z,28.3
2018-08-06T09:14:31.755Z,28.33
2018-08-06T09:15:41.182Z,28.27
2018-08-06T09:16:50.593Z,28.27
2018-08-06T09:17:59.777Z,28.25
2018-08-06T09:19:09.504Z,28.25
2018-08-06T09:20:18.151Z,28.27
2018-08-06T09:21:28.098Z,28.27
2018-08-06T09:22:37.258Z,28.27
2018-08-06T09:23:47.013Z,28.27
2018-08-06T09:24:56.969Z,28.27
2018-08-06T09:26:06.161Z,28.27
2018-08-06T09:27:15.337Z,28.33
2018-08-06T09:28:24.532Z,28.3
2018-08-06T09:29:33.701Z,28.34
2018-08-06T09:30:42.616Z,28.31
2018-08-06T09:31:51.773Z,28.3
2018-08-06T09:33:00.685Z,28.3
2018-08-06T09:34:10.680Z,28.3
2018-08-06T09:35:20.098Z,28.34
2018-08-06T09:36:29.523Z,28.31
2018-08-06T09:37:38.941Z,28.29
2018-08-06T09:38:48.360Z,28.31
2018-08-06T09:39:57.766Z,28.36
2018-08-06T09:41:07.251Z,28.33
2018-08-06T09:42:16.687Z,28.33
2018-08-06T09:43:26.355Z,28.27
2018-08-06T09:44:35.786Z,28.31
2018-08-06T09:45:44.981Z,28.4
2018-08-06T09:46:53.633Z,28.36
2018-08-06T09:48:02.833Z,28.34
2018-08-06T09:49:12.511Z,28.31
2018-08-06T09:50:22.177Z,28.34
2018-08-06T09:51:31.350Z,28.29
2018-08-06T09:52:40.005Z,28.36
2018-08-06T09:53:49.678Z,28.33
2018-08-06T09:54:58.582Z,28.34
2018-08-06T09:56:07.739Z,28.37
2018-08-06T09:57:17.125Z,28.34
2018-08-06T09:58:26.271Z,28.36
2018-08-06T09:59:35.442Z,28.37
2018-08-06T10:00:44.628Z,28.36
2018-08-06T10:01:53.799Z,28.36
2018-08-06T10:03:03.478Z,28.39
2018-08-06T10:04:12.897Z,28.37
2018-08-06T10:05:22.077Z,28.37
2018-08-06T10:06:32.166Z,28.29
2018-08-06T10:07:42.005Z,28.43
2018-08-06T10:08:50.642Z,28.37
2018-08-06T10:09:59.855Z,28.36
2018-08-06T10:11:08.495Z,28.39
2018-08-06T10:12:17.395Z,28.34
2018-08-06T10:13:26.296Z,28.4
2018-08-06T10:14:35.963Z,28.36
2018-08-06T10:15:45.376Z,28.36
2018-08-06T10:16:55.147Z,28.34
2018-08-06T10:18:04.828Z,28.34
2018-08-06T10:19:14.463Z,28.41
2018-08-06T10:20:24.201Z,28.37
2018-08-06T10:21:33.871Z,28.37
2018-08-06T10:22:43.026Z,28.39
2018-08-06T10:23:52.186Z,28.4
2018-08-06T10:25:01.596Z,28.39
2018-08-06T10:26:11.284Z,28.36
2018-08-06T10:27:20.440Z,28.39
2018-08-06T10:28:29.347Z,28.34
2018-08-06T10:29:38.257Z,28.41
2018-08-06T10:30:47.810Z,28.36
2018-08-06T10:31:57.242Z,28.39
2018-08-06T10:33:06.155Z,28.41
2018-08-06T10:34:15.836Z,28.34
2018-08-06T10:35:25.244Z,28.39
2018-08-06T10:36:34.672Z,28.3
2018-08-06T10:37:44.354Z,28.34
2018-08-06T10:38:53.783Z,28.4
2018-08-06T10:40:03.209Z,28.31
2018-08-06T10:41:12.892Z,28.43
2018-08-06T10:42:22.297Z,28.36
2018-08-06T10:43:31.721Z,28.34
2018-08-06T10:44:40.892Z,28.34
2018-08-06T10:45:50.062Z,28.46
2018-08-06T10:46:58.973Z,28.36
2018-08-06T10:48:08.410Z,28.33
2018-08-06T10:49:18.422Z,28.41
2018-08-06T10:50:27.598Z,28.36
2018-08-06T10:51:37.300Z,28.39
2018-08-06T10:52:46.709Z,28.36
2018-08-06T10:53:55.691Z,28.33
2018-08-06T10:55:05.638Z,28.37
2018-08-06T10:56:15.325Z,28.39
2018-08-06T10:57:25.047Z,28.37
2018-08-06T10:58:33.954Z,28.36
2018-08-06T10:59:43.470Z,28.41
2018-08-06T11:00:52.369Z,28.37
2018-08-06T11:02:02.052Z,28.4
2018-08-06T11:03:11.482Z,28.36
2018-08-06T11:04:21.191Z,28.43
2018-08-06T11:05:30.109Z,28.48
2018-08-06T11:06:39.664Z,28.43
2018-08-06T11:07:48.895Z,28.43
2018-08-06T11:08:59.034Z,28.48
2018-08-06T11:10:08.048Z,28.4
2018-08-06T11:11:17.735Z,28.39
2018-08-06T11:12:26.908Z,28.39
2018-08-06T11:13:36.333Z,28.44
2018-08-06T11:14:45.549Z,28.41
2018-08-06T11:15:55.243Z,28.41
2018-08-06T11:17:05.229Z,28.46
2018-08-06T11:18:14.404Z,28.46
2018-08-06T11:19:23.557Z,28.41
2018-08-06T11:20:32.531Z,28.44
2018-08-06T11:21:42.456Z,28.41
2018-08-06T11:22:51.885Z,28.52
2018-08-06T11:24:01.572Z,28.44
2018-08-06T11:25:11.268Z,28.46
2018-08-06T11:26:20.988Z,28.44
2018-08-06T11:27:30.203Z,28.51
2018-08-06T11:28:40.306Z,28.44
2018-08-06T11:29:50.014Z,28.51
2018-08-06T11:30:59.464Z,28.49
2018-08-06T11:32:08.865Z,28.37
2018-08-06T11:33:18.593Z,28.46
2018-08-06T11:34:27.756Z,28.43
2018-08-06T11:35:36.671Z,28.4
2018-08-06T11:36:45.327Z,28.46
2018-08-06T11:37:55.112Z,28.51
2018-08-06T11:39:04.024Z,28.48
2018-08-06T11:40:12.942Z,28.46
2018-08-06T11:41:22.105Z,28.54
2018-08-06T11:42:31.019Z,28.44
2018-08-06T11:43:40.199Z,28.49
2018-08-06T11:44:49.637Z,28.43
2018-08-06T11:45:58.618Z,28.4
2018-08-06T11:47:07.788Z,28.44
2018-08-06T11:48:16.944Z,28.41
2018-08-06T11:49:26.113Z,28.44
2018-08-06T11:50:35.570Z,28.51
2018-08-06T11:51:44.730Z,28.48
2018-08-06T11:52:53.648Z,28.41
2018-08-06T11:54:02.892Z,28.51
2018-08-06T11:55:12.307Z,28.41
2018-08-06T11:56:22.024Z,28.44
2018-08-06T11:57:31.876Z,28.49
2018-08-06T11:58:41.549Z,28.51
2018-08-06T11:59:50.978Z,28.41
2018-08-06T12:00:59.893Z,28.51
2018-08-06T12:02:08.806Z,28.36
2018-08-06T12:03:18.238Z,28.55
2018-08-06T12:04:27.403Z,28.49
2018-08-06T12:05:36.599Z,28.44
2018-08-06T12:06:46.148Z,28.52
2018-08-06T12:07:55.309Z,28.54
2018-08-06T12:09:04.232Z,28.51
2018-08-06T12:10:13.640Z,28.54
2018-08-06T12:11:23.073Z,28.49
2018-08-06T12:12:33.008Z,28.52
2018-08-06T12:13:42.508Z,28.46
2018-08-06T12:14:52.098Z,28.44
2018-08-06T12:16:01.266Z,28.52
2018-08-06T12:17:10.423Z,28.55
2018-08-06T12:18:20.099Z,28.48
2018-08-06T12:19:29.257Z,28.48
2018-08-06T12:20:38.443Z,28.4
2018-08-06T12:21:47.603Z,28.44
2018-08-06T12:22:57.274Z,28.56
2018-08-06T12:24:05.917Z,28.49
2018-08-06T12:25:15.095Z,28.48
2018-08-06T12:26:25.152Z,28.55
2018-08-06T12:27:34.945Z,28.41
2018-08-06T12:28:44.637Z,28.55
2018-08-06T12:29:53.796Z,28.51
2018-08-06T12:31:02.966Z,28.41
2018-08-06T12:32:12.132Z,28.51
2018-08-06T12:33:21.632Z,28.49
2018-08-06T12:34:31.058Z,28.43
2018-08-06T12:35:40.504Z,28.41
2018-08-06T12:36:49.407Z,28.48
2018-08-06T12:37:58.566Z,28.46
2018-08-06T12:39:08.321Z,28.48
2018-08-06T12:40:17.229Z,28.43
2018-08-06T12:41:26.946Z,28.51
2018-08-06T12:42:36.109Z,28.51
2018-08-06T12:43:45.271Z,28.44
2018-08-06T12:44:54.955Z,28.39
2018-08-06T12:46:04.700Z,28.4
2018-08-06T12:47:14.459Z,28.54
2018-08-06T12:48:23.882Z,28.54
2018-08-06T12:49:33.038Z,28.59
2018-08-06T12:50:42.717Z,28.49
2018-08-06T12:51:52.562Z,28.51
2018-08-06T12:53:01.749Z,28.49
2018-08-06T12:54:11.213Z,28.51
2018-08-06T12:55:20.660Z,28.58
2018-08-06T12:56:30.243Z,28.55
2018-08-06T12:57:39.672Z,28.49
2018-08-06T12:58:48.587Z,28.56
2018-08-06T12:59:57.493Z,28.46
2018-08-06T13:01:06.646Z,28.44
2018-08-06T13:02:16.313Z,28.55
2018-08-06T13:03:25.738Z,28.55
2018-08-06T13:04:34.910Z,28.51
2018-08-06T13:05:43.828Z,28.54
2018-08-06T13:06:52.990Z,28.55
2018-08-06T13:08:02.424Z,28.56
2018-08-06T13:09:11.068Z,28.58
2018-08-06T13:10:20.226Z,28.55
2018-08-06T13:11:29.916Z,28.56
2018-08-06T13:12:39.339Z,28.55
2018-08-06T13:13:48.504Z,28.55
2018-08-06T13:14:57.933Z,28.55
2018-08-06T13:16:07.108Z,28.58
2018-08-06T13:17:16.262Z,28.58
2018-08-06T13:18:25.689Z,28.56
2018-08-06T13:19:35.627Z,28.56
2018-08-06T13:20:44.520Z,28.64
2018-08-06T13:21:54.196Z,28.58
2018-08-06T13:23:03.360Z,28.64
2018-08-06T13:24:12.522Z,28.56
2018-08-06T13:25:22.317Z,28.56
2018-08-06T13:26:32.297Z,28.67
2018-08-06T13:27:41.211Z,28.52
2018-08-06T13:28:50.368Z,28.55
2018-08-06T13:29:59.811Z,28.61
2018-08-06T13:31:09.358Z,28.58
2018-08-06T13:32:19.088Z,28.58
2018-08-06T13:33:27.733Z,28.61
2018-08-06T13:34:37.419Z,28.66
2018-08-06T13:35:46.854Z,28.64
2018-08-06T13:36:56.403Z,28.58
2018-08-06T13:38:06.361Z,28.59
2018-08-06T13:39:16.026Z,28.58
2018-08-06T13:40:25.180Z,28.64
2018-08-06T13:41:34.604Z,28.59
2018-08-06T13:42:44.016Z,28.71
2018-08-06T13:43:53.172Z,28.62
2018-08-06T13:45:02.603Z,28.68
2018-08-06T13:46:11.774Z,28.67
2018-08-06T13:47:21.456Z,28.67
2018-08-06T13:48:30.621Z,28.67
2018-08-06T13:49:40.051Z,28.64
2018-08-06T13:50:48.954Z,28.68
2018-08-06T13:51:58.378Z,28.62
2018-08-06T13:53:08.391Z,28.67
2018-08-06T13:54:18.417Z,28.64
2018-08-06T13:55:27.339Z,28.67
2018-08-06T13:56:36.519Z,28.67
2018-08-06T13:57:45.955Z,28.66
2018-08-06T13:58:54.852Z,28.66
2018-08-06T14:00:04.297Z,28.71
2018-08-06T14:01:13.471Z,28.66
2018-08-06T14:02:22.395Z,28.71
2018-08-06T14:03:32.072Z,28.71
2018-08-06T14:04:41.297Z,28.73
2018-08-06T14:05:50.719Z,28.66
2018-08-06T14:07:00.268Z,28.71
2018-08-06T14:08:09.780Z,28.66
2018-08-06T14:09:18.708Z,28.73
2018-08-06T14:10:27.886Z,28.73
2018-08-06T14:11:37.305Z,28.71
2018-08-06T14:12:46.803Z,28.76
2018-08-06T14:13:55.986Z,28.74
2018-08-06T14:15:05.393Z,28.74
2018-08-06T14:16:14.290Z,28.77
2018-08-06T14:17:23.483Z,28.76
2018-08-06T14:18:32.948Z,28.77
2018-08-06T14:19:42.387Z,28.78
2018-08-06T14:20:51.539Z,28.76
2018-08-06T14:22:00.967Z,28.8
2018-08-06T14:23:10.393Z,28.8
2018-08-06T14:24:19.627Z,28.8
2018-08-06T14:25:28.789Z,28.78
2018-08-06T14:26:38.214Z,28.8
2018-08-06T14:27:48.153Z,28.76
2018-08-06T14:28:57.339Z,28.77
2018-08-06T14:30:06.508Z,28.78
2018-08-06T14:31:15.668Z,28.76
2018-08-06T14:32:24.879Z,28.85
2018-08-06T14:33:34.291Z,28.76
2018-08-06T14:34:43.720Z,28.74
2018-08-06T14:35:53.151Z,28.83
2018-08-06T14:37:02.053Z,28.78
2018-08-06T14:38:11.478Z,28.74
2018-08-06T14:39:21.155Z,28.76
2018-08-06T14:40:30.357Z,28.81
2018-08-06T14:41:39.528Z,28.85
2018-08-06T14:42:48.930Z,28.81
2018-08-06T14:43:58.367Z,28.74
2018-08-06T14:45:07.632Z,28.83
2018-08-06T14:46:16.819Z,28.86
2018-08-06T14:47:25.735Z,28.85
2018-08-06T14:48:35.167Z,28.81
2018-08-06T14:49:44.068Z,28.76
2018-08-06T14:50:54.099Z,28.86
2018-08-06T14:52:03.585Z,28.8
2018-08-06T14:53:12.884Z,28.8
2018-08-06T14:54:21.528Z,28.83
2018-08-06T14:55:30.989Z,28.81